Nearby METAR Reports

 

LEAL - Alicante/El Alte, Spain
Distance from station: SO 52km
Actualización: 21/07/2018 17:00
Few Clouds
Few Clouds
 Viento del E
Viento: E 17 km/h
Temperatura: 28°C
Heat Index: 30°C
Rocío: 22°C
Humedad: 70%
Barómetro: 1012 hPa
Clouds: Few Clouds
Visibility: 10 km
Cloud details: Few Clouds 762 m
2018/07/21 15:00 LEAL 211500Z 10009KT 070V140 9999 FEW025 28/22 Q1012 NOSIG
LEVC - Valencia (civ/Mi, Spain
Distance from station: NNO 107km
Actualización: 21/07/2018 17:00
Parcialmente nuboso
Parcialmente nuboso
 Viento del E
Viento: E 20 km/h
Temperatura: 28°C
Heat Index: 29°C
Rocío: 20°C
Humedad: 62%
Barómetro: 1012 hPa
Clouds: Parcialmente nuboso
Visibility: 10 km
Cloud details: Parcialmente nuboso 610 m
2018/07/21 15:00 LEVC 211500Z 09011KT 050V120 9999 SCT020 28/20 Q1012 NOSIG
 
LELC - San Javier(Mil/C, Spain
Distance from station: SO 109km
Actualización: 21/07/2018 17:00
Few Clouds
Few Clouds
 Viento del SE
Viento: SE 13 km/h
Temperatura: 29°C
Heat Index: 32°C
Rocío: 23°C
Humedad: 70%
Barómetro: 1012 hPa
Clouds: Few Clouds
Visibility: 10 km
Cloud details: Few Clouds 518 m
2018/07/21 15:00 LELC 211500Z 13007KT 080V190 9999 FEW017 29/23 Q1012 NOSIG
LERI - Alcantarilla(Sp-, Spain
Distance from station: SO 120km
Actualización: 21/07/2018 17:00
Despejado
Despejado
 Viento del SE
Viento: SE 28 km/h
Temperatura: 33°C
Heat Index: 34°C
Rocío: 19°C
Humedad: 44%
Barómetro: 1011 hPa
Resumen: Despejado
Visibility: greater than 10 km
2018/07/21 15:00 LERI 211500Z 14015KT 110V170 CAVOK 33/19 Q1011 NOSIG
 
LEIB - Ibiza/Es Codola, Spain
Distance from station: ENE 131km
Actualización: 21/07/2018 17:00
Parcialmente nuboso
Parcialmente nuboso
 Viento del SSO
Viento: SSO 17 km/h
Temperatura: 30°C
Heat Index: 33°C
Rocío: 22°C
Humedad: 62%
Barómetro: 1012 hPa
Clouds: Parcialmente nuboso
Visibility: 10 km
Cloud details: Parcialmente nuboso 762 m
2018/07/21 15:00 LEIB 211500Z 20009KT 170V230 9999 SCT025 30/22 Q1012 NOSIG
LEAB - Albacete (civ/Mi, Spain
Distance from station: ONO 157km
Actualización: 21/07/2018 17:00
Despejado
Despejado
 Viento del O
Viento: O 19 km/h
Temperatura: 33°C
Rocío: 9°C
Humedad: 23%
Barómetro: 1014 hPa
Resumen: Despejado
Visibility: greater than 10 km
2018/07/21 15:00 LEAB 211500Z 28010KT CAVOK 33/09 Q1014 NOSIG